PWSweather.com
Personal Weather Stations
Station Observations
KCOGRAND2
Redlands, Southcamp Road & Dakota Circle, Grand Junction, CO 81507

Redlands, Southcamp Road & Dakota CircleGrand Junction, CO 81507

Lat: 39.055, Lon: -108.637

Elevation: 4870

Station Type: RadioShack WX200

High Low Average
Temperature 80.1°F26.7°C 44.6°F7.0°C 61.5°F16.4°C
Dew Point 20.7°F-6.3°C 6.6°F-14.1°C 14.4°F-9.8°C
Winds 12.0 mph 19.3 kmh Calm Calm 6.0 mph S9.7 kmh S
Wind Gusts 20.6 mph33.2 kmh -- 9.0 mph14.5 kmh
Humidity 32% 13% 23%
Pressure 25.01 in846.9 mb 24.77 in838.8 mb -
Precipitation 0.00 in0.0 mm - -
Hour Temp Dew Point Humidity Winds Wind Gusts Pressure Precip Precip Rate Daily Precip Total
12:04 AM 55.6°F13.1°C 3.7°F-15.7°C 12% 8.0 mph NE12.9 kmh NE 9.6 mph15.4 kmh 24.98 in845.9 mb 0.00 in0.0 mm 0.00 in/hr0.0 mm/hr 0.00 in0.0 mm
12:09 AM 55.4°F13.0°C 3.7°F-15.7°C 12% 6.0 mph NE9.7 kmh NE 6.9 mph11.1 kmh 24.98 in845.9 mb 0.00 in0.0 mm 0.00 in/hr0.0 mm/hr 0.00 in0.0 mm
12:14 AM 54.5°F12.5°C 3.0°F-16.1°C 12% 3.0 mph NE4.8 kmh NE 4.0 mph6.4 kmh 24.98 in845.9 mb 0.00 in0.0 mm 0.00 in/hr0.0 mm/hr 0.00 in0.0 mm
12:19 AM 54.1°F12.3°C 4.5°F-15.3°C 13% 2.0 mph NE3.2 kmh NE 5.4 mph8.7 kmh 24.98 in845.9 mb 0.00 in0.0 mm 0.00 in/hr0.0 mm/hr 0.00 in0.0 mm
12:24 AM 53.6°F12.0°C 3.9°F-15.6°C 13% 2.0 mph N3.2 kmh N 4.0 mph6.4 kmh 24.98 in845.9 mb 0.00 in0.0 mm 0.00 in/hr0.0 mm/hr 0.00 in0.0 mm
12:29 AM 53.1°F11.7°C 6.6°F-14.1°C 15% 2.0 mph NW3.2 kmh NW 5.8 mph9.3 kmh 24.98 in845.9 mb 0.00 in0.0 mm 0.00 in/hr0.0 mm/hr 0.00 in0.0 mm
12:34 AM 52.5°F11.4°C 7.7°F-13.5°C 16% 3.0 mph WSW4.8 kmh WSW 4.5 mph7.2 kmh 24.98 in845.9 mb 0.00 in0.0 mm 0.00 in/hr0.0 mm/hr 0.00 in0.0 mm
12:39 AM 52.5°F11.4°C 7.7°F-13.5°C 16% 2.0 mph SE3.2 kmh SE 4.0 mph6.4 kmh 24.98 in845.9 mb 0.00 in0.0 mm 0.00 in/hr0.0 mm/hr 0.00 in0.0 mm
12:44 AM 52.0°F11.1°C 7.2°F-13.8°C 16% 2.0 mph ESE3.2 kmh ESE 4.5 mph7.2 kmh 24.98 in845.9 mb 0.00 in0.0 mm 0.00 in/hr0.0 mm/hr 0.00 in0.0 mm
12:49 AM 51.8°F11.0°C 9.7°F-12.4°C 18% 2.0 mph SE3.2 kmh SE 4.0 mph6.4 kmh 24.98 in845.9 mb 0.00 in0.0 mm 0.00 in/hr0.0 mm/hr 0.00 in0.0 mm
12:54 AM 51.3°F10.7°C 9.1°F-12.7°C 18% 1.0 mph SE1.6 kmh SE 3.6 mph5.8 kmh 24.98 in845.9 mb 0.00 in0.0 mm 0.00 in/hr0.0 mm/hr 0.00 in0.0 mm
12:59 AM 52.0°F11.1°C 9.9°F-12.3°C 18% 1.0 mph SE1.6 kmh SE 3.6 mph5.8 kmh 24.98 in845.9 mb 0.00 in0.0 mm 0.00 in/hr0.0 mm/hr 0.00 in0.0 mm
01:04 AM 52.2°F11.2°C 10.0°F-12.2°C 18% 2.0 mph SE3.2 kmh SE 4.9 mph7.9 kmh 24.98 in845.9 mb 0.00 in0.0 mm 0.00 in/hr0.0 mm/hr 0.00 in0.0 mm
01:09 AM 51.6°F10.9°C 9.5°F-12.5°C 18% 2.0 mph S3.2 kmh S 4.5 mph7.2 kmh 24.98 in845.9 mb 0.00 in0.0 mm 0.00 in/hr0.0 mm/hr 0.00 in0.0 mm
01:15 AM 51.4°F10.8°C 9.3°F-12.6°C 18% 1.0 mph S1.6 kmh S 2.7 mph4.3 kmh 24.98 in845.9 mb 0.00 in0.0 mm 0.00 in/hr0.0 mm/hr 0.00 in0.0 mm
01:20 AM 50.7°F10.4°C 10.0°F-12.2°C 19% Calm Calm -- 24.98 in845.9 mb 0.00 in0.0 mm 0.00 in/hr0.0 mm/hr 0.00 in0.0 mm
01:25 AM 50.7°F10.4°C 12.2°F-11.0°C 21% Calm Calm 3.6 mph5.8 kmh 24.98 in845.9 mb 0.00 in0.0 mm 0.00 in/hr0.0 mm/hr 0.00 in0.0 mm
01:30 AM 50.9°F10.5°C 12.4°F-10.9°C 21% 2.0 mph S3.2 kmh S 3.6 mph5.8 kmh 24.98 in845.9 mb 0.00 in0.0 mm 0.00 in/hr0.0 mm/hr 0.00 in0.0 mm
01:35 AM 51.6°F10.9°C 9.5°F-12.5°C 18% 3.0 mph S4.8 kmh S 4.5 mph7.2 kmh 24.98 in845.9 mb 0.00 in0.0 mm 0.00 in/hr0.0 mm/hr 0.00 in0.0 mm
01:40 AM 52.3°F11.3°C 10.0°F-12.2°C 18% 3.0 mph SE4.8 kmh SE 4.0 mph6.4 kmh 24.98 in845.9 mb 0.00 in0.0 mm 0.00 in/hr0.0 mm/hr 0.00 in0.0 mm
01:45 AM 53.2°F11.8°C 10.9°F-11.7°C 18% 3.0 mph ESE4.8 kmh ESE 4.0 mph6.4 kmh 24.98 in845.9 mb 0.00 in0.0 mm 0.00 in/hr0.0 mm/hr 0.00 in0.0 mm
01:50 AM 53.1°F11.7°C 6.6°F-14.1°C 15% 2.0 mph ESE3.2 kmh ESE 3.6 mph5.8 kmh 24.98 in845.9 mb 0.00 in0.0 mm 0.00 in/hr0.0 mm/hr 0.00 in0.0 mm
01:55 AM 53.6°F12.0°C 11.1°F-11.6°C 18% 3.0 mph ESE4.8 kmh ESE 6.9 mph11.1 kmh 24.98 in845.9 mb 0.00 in0.0 mm 0.00 in/hr0.0 mm/hr 0.00 in0.0 mm
02:00 AM 52.2°F11.2°C 7.3°F-13.7°C 16% 4.0 mph SE6.4 kmh SE 5.8 mph9.3 kmh 24.98 in845.9 mb 0.00 in0.0 mm 0.00 in/hr0.0 mm/hr 0.00 in0.0 mm
02:05 AM 51.1°F10.6°C 9.1°F-12.7°C 18% 4.0 mph SE6.4 kmh SE 5.8 mph9.3 kmh 24.98 in845.9 mb 0.00 in0.0 mm 0.00 in/hr0.0 mm/hr 0.00 in0.0 mm
02:10 AM 51.1°F10.6°C 9.1°F-12.7°C 18% 4.0 mph SE6.4 kmh SE 5.8 mph9.3 kmh 24.98 in845.9 mb 0.00 in0.0 mm 0.00 in/hr0.0 mm/hr 0.00 in0.0 mm
02:15 AM 51.6°F10.9°C 9.5°F-12.5°C 18% 3.0 mph SSE4.8 kmh SSE 4.5 mph7.2 kmh 24.98 in845.9 mb 0.00 in0.0 mm 0.00 in/hr0.0 mm/hr 0.00 in0.0 mm
02:20 AM 51.3°F10.7°C 9.1°F-12.7°C 18% 3.0 mph SSE4.8 kmh SSE 4.5 mph7.2 kmh 24.98 in845.9 mb 0.00 in0.0 mm 0.00 in/hr0.0 mm/hr 0.00 in0.0 mm
02:25 AM 50.9°F10.5°C 9.0°F-12.8°C 18% 2.0 mph SSE3.2 kmh SSE 3.6 mph5.8 kmh 24.98 in845.9 mb 0.00 in0.0 mm 0.00 in/hr0.0 mm/hr 0.00 in0.0 mm
02:30 AM 50.9°F10.5°C 10.2°F-12.1°C 19% 1.0 mph SSE1.6 kmh SSE 4.0 mph6.4 kmh 24.98 in845.9 mb 0.00 in0.0 mm 0.00 in/hr0.0 mm/hr 0.00 in0.0 mm
02:35 AM 51.3°F10.7°C 9.1°F-12.7°C 18% 2.0 mph SSE3.2 kmh SSE 3.6 mph5.8 kmh 24.98 in845.9 mb 0.00 in0.0 mm 0.00 in/hr0.0 mm/hr 0.00 in0.0 mm
02:40 AM 51.1°F10.6°C 9.1°F-12.7°C 18% 2.0 mph SSE3.2 kmh SSE 4.0 mph6.4 kmh 24.98 in845.9 mb 0.00 in0.0 mm 0.00 in/hr0.0 mm/hr 0.00 in0.0 mm
02:45 AM 51.1°F10.6°C 9.1°F-12.7°C 18% 2.0 mph SE3.2 kmh SE 4.5 mph7.2 kmh 24.98 in845.9 mb 0.00 in0.0 mm 0.00 in/hr0.0 mm/hr 0.00 in0.0 mm
02:50 AM 51.6°F10.9°C 9.5°F-12.5°C 18% 3.0 mph SE4.8 kmh SE 4.0 mph6.4 kmh 24.98 in845.9 mb 0.00 in0.0 mm 0.00 in/hr0.0 mm/hr 0.00 in0.0 mm
02:55 AM 50.5°F10.3°C 9.9°F-12.3°C 19% 4.0 mph SE6.4 kmh SE 5.8 mph9.3 kmh 24.98 in845.9 mb 0.00 in0.0 mm 0.00 in/hr0.0 mm/hr 0.00 in0.0 mm
03:00 AM 48.9°F9.4°C 10.8°F-11.8°C 21% 3.0 mph SE4.8 kmh SE 4.5 mph7.2 kmh 24.98 in845.9 mb 0.00 in0.0 mm 0.00 in/hr0.0 mm/hr 0.00 in0.0 mm
03:05 AM 48.9°F9.4°C 10.8°F-11.8°C 21% 2.0 mph SE3.2 kmh SE 4.9 mph7.9 kmh 24.98 in845.9 mb 0.00 in0.0 mm 0.00 in/hr0.0 mm/hr 0.00 in0.0 mm
03:10 AM 49.1°F9.5°C 13.8°F-10.1°C 24% 3.0 mph SE4.8 kmh SE 6.7 mph10.8 kmh 24.98 in845.9 mb 0.00 in0.0 mm 0.00 in/hr0.0 mm/hr 0.00 in0.0 mm
03:15 AM 48.7°F9.3°C 13.6°F-10.2°C 24% 4.0 mph SE6.4 kmh SE 4.5 mph7.2 kmh 24.98 in845.9 mb 0.00 in0.0 mm 0.00 in/hr0.0 mm/hr 0.00 in0.0 mm
03:20 AM 48.9°F9.4°C 15.6°F-9.1°C 26% 3.0 mph SE4.8 kmh SE 4.9 mph7.9 kmh 24.98 in845.9 mb 0.00 in0.0 mm 0.00 in/hr0.0 mm/hr 0.00 in0.0 mm
03:25 AM 50.2°F10.1°C 14.7°F-9.6°C 24% 4.0 mph ESE6.4 kmh ESE 5.4 mph8.7 kmh 24.98 in845.9 mb 0.00 in0.0 mm 0.00 in/hr0.0 mm/hr 0.00 in0.0 mm
03:30 AM 50.4°F10.2°C 14.9°F-9.5°C 24% 4.0 mph ESE6.4 kmh ESE 4.9 mph7.9 kmh 24.98 in845.9 mb 0.00 in0.0 mm 0.00 in/hr0.0 mm/hr 0.00 in0.0 mm
03:35 AM 49.8°F9.9°C 14.5°F-9.7°C 24% 3.0 mph S4.8 kmh S 4.5 mph7.2 kmh 24.98 in845.9 mb 0.00 in0.0 mm 0.00 in/hr0.0 mm/hr 0.00 in0.0 mm
03:40 AM 50.0°F10.0°C 14.7°F-9.6°C 24% 3.0 mph S4.8 kmh S 4.0 mph6.4 kmh 24.98 in845.9 mb 0.00 in0.0 mm 0.00 in/hr0.0 mm/hr 0.00 in0.0 mm
03:45 AM 50.2°F10.1°C 14.7°F-9.6°C 24% 3.0 mph SSE4.8 kmh SSE 4.9 mph7.9 kmh 24.98 in845.9 mb 0.00 in0.0 mm 0.00 in/hr0.0 mm/hr 0.00 in0.0 mm
03:50 AM 49.8°F9.9°C 14.5°F-9.7°C 24% 2.0 mph SSE3.2 kmh SSE 4.0 mph6.4 kmh 24.98 in845.9 mb 0.00 in0.0 mm 0.00 in/hr0.0 mm/hr 0.00 in0.0 mm
03:55 AM 50.9°F10.5°C 15.4°F-9.2°C 24% 3.0 mph SSE4.8 kmh SSE 6.7 mph10.8 kmh 24.98 in845.9 mb 0.00 in0.0 mm 0.00 in/hr0.0 mm/hr 0.00 in0.0 mm
04:00 AM 51.3°F10.7°C 14.7°F-9.6°C 23% 5.0 mph ESE8.0 kmh ESE 6.9 mph11.1 kmh 24.98 in845.9 mb 0.00 in0.0 mm 0.00 in/hr0.0 mm/hr 0.00 in0.0 mm
04:05 AM 51.3°F10.7°C 12.7°F-10.7°C 21% 6.0 mph ESE9.7 kmh ESE 7.8 mph12.6 kmh 24.98 in845.9 mb 0.00 in0.0 mm 0.00 in/hr0.0 mm/hr 0.00 in0.0 mm
04:10 AM 50.4°F10.2°C 11.8°F-11.2°C 21% 6.0 mph SE9.7 kmh SE 6.9 mph11.1 kmh 24.98 in845.9 mb 0.00 in0.0 mm 0.00 in/hr0.0 mm/hr 0.00 in0.0 mm
04:15 AM 50.5°F10.3°C 12.0°F-11.1°C 21% 5.0 mph SE8.0 kmh SE 7.4 mph11.9 kmh 24.98 in845.9 mb 0.00 in0.0 mm 0.00 in/hr0.0 mm/hr 0.00 in0.0 mm
04:20 AM 49.6°F9.8°C 11.3°F-11.5°C 21% 4.0 mph SSE6.4 kmh SSE 5.8 mph9.3 kmh 24.98 in845.9 mb 0.00 in0.0 mm 0.00 in/hr0.0 mm/hr 0.00 in0.0 mm
04:25 AM 49.1°F9.5°C 13.8°F-10.1°C 24% 2.0 mph S3.2 kmh S 4.0 mph6.4 kmh 24.98 in845.9 mb 0.00 in0.0 mm 0.00 in/hr0.0 mm/hr 0.00 in0.0 mm
04:30 AM 49.5°F9.7°C 14.2°F-9.9°C 24% 1.0 mph SE1.6 kmh SE 3.1 mph5.0 kmh 24.98 in845.9 mb 0.00 in0.0 mm 0.00 in/hr0.0 mm/hr 0.00 in0.0 mm
04:35 AM 50.4°F10.2°C 14.9°F-9.5°C 24% 2.0 mph SE3.2 kmh SE 7.4 mph11.9 kmh 24.98 in845.9 mb 0.00 in0.0 mm 0.00 in/hr0.0 mm/hr 0.00 in0.0 mm
04:40 AM 50.9°F10.5°C 15.4°F-9.2°C 24% 4.0 mph ESE6.4 kmh ESE 8.3 mph13.4 kmh 24.98 in845.9 mb 0.00 in0.0 mm 0.00 in/hr0.0 mm/hr 0.00 in0.0 mm
04:45 AM 50.7°F10.4°C 15.3°F-9.3°C 24% 5.0 mph ESE8.0 kmh ESE 8.3 mph13.4 kmh 24.98 in845.9 mb 0.00 in0.0 mm 0.00 in/hr0.0 mm/hr 0.00 in0.0 mm
04:50 AM 49.8°F9.9°C 14.5°F-9.7°C 24% 5.0 mph SE8.0 kmh SE 6.9 mph11.1 kmh 24.98 in845.9 mb 0.00 in0.0 mm 0.00 in/hr0.0 mm/hr 0.00 in0.0 mm
04:55 AM 50.7°F10.4°C 17.1°F-8.3°C 26% 5.0 mph ESE8.0 kmh ESE 7.8 mph12.6 kmh 24.98 in845.9 mb 0.00 in0.0 mm 0.00 in/hr0.0 mm/hr 0.00 in0.0 mm
05:00 AM 50.2°F10.1°C 14.7°F-9.6°C 24% 5.0 mph E8.0 kmh E 6.9 mph11.1 kmh 24.98 in845.9 mb 0.00 in0.0 mm 0.00 in/hr0.0 mm/hr 0.00 in0.0 mm
05:05 AM 49.6°F9.8°C 14.4°F-9.8°C 24% 5.0 mph ESE8.0 kmh ESE 6.7 mph10.8 kmh 24.98 in845.9 mb 0.00 in0.0 mm 0.00 in/hr0.0 mm/hr 0.00 in0.0 mm
05:10 AM 49.1°F9.5°C 15.8°F-9.0°C 26% 4.0 mph SE6.4 kmh SE 6.3 mph10.1 kmh 24.98 in845.9 mb 0.00 in0.0 mm 0.00 in/hr0.0 mm/hr 0.00 in0.0 mm
05:15 AM 47.8°F8.8°C 15.4°F-9.2°C 27% 4.0 mph SE6.4 kmh SE 6.3 mph10.1 kmh 24.98 in845.9 mb 0.00 in0.0 mm 0.00 in/hr0.0 mm/hr 0.00 in0.0 mm
05:20 AM 47.8°F8.8°C 15.4°F-9.2°C 27% 4.0 mph SE6.4 kmh SE 5.8 mph9.3 kmh 24.98 in845.9 mb 0.00 in0.0 mm 0.00 in/hr0.0 mm/hr 0.00 in0.0 mm
05:25 AM 50.0°F10.0°C 17.4°F-8.1°C 27% 5.0 mph ESE8.0 kmh ESE 7.4 mph11.9 kmh 24.98 in845.9 mb 0.00 in0.0 mm 0.00 in/hr0.0 mm/hr 0.00 in0.0 mm
05:30 AM 49.6°F9.8°C 17.1°F-8.3°C 27% 6.0 mph E9.7 kmh E 8.3 mph13.4 kmh 24.98 in845.9 mb 0.00 in0.0 mm 0.00 in/hr0.0 mm/hr 0.00 in0.0 mm
05:35 AM 49.5°F9.7°C 16.9°F-8.4°C 27% 6.0 mph E9.7 kmh E 8.7 mph14.0 kmh 24.98 in845.9 mb 0.00 in0.0 mm 0.00 in/hr0.0 mm/hr 0.00 in0.0 mm
05:40 AM 50.0°F10.0°C 17.4°F-8.1°C 27% 7.0 mph E11.3 kmh E 10.5 mph16.9 kmh 24.98 in845.9 mb 0.00 in0.0 mm 0.00 in/hr0.0 mm/hr 0.00 in0.0 mm
05:45 AM 49.6°F9.8°C 17.1°F-8.3°C 27% 7.0 mph E11.3 kmh E 9.2 mph14.8 kmh 24.98 in845.9 mb 0.00 in0.0 mm 0.00 in/hr0.0 mm/hr 0.00 in0.0 mm
05:50 AM 49.3°F9.6°C 16.7°F-8.5°C 27% 6.0 mph E9.7 kmh E 7.8 mph12.6 kmh 24.98 in845.9 mb 0.00 in0.0 mm 0.00 in/hr0.0 mm/hr 0.00 in0.0 mm
05:56 AM 48.4°F9.1°C 16.0°F-8.9°C 27% 5.0 mph SE8.0 kmh SE 6.3 mph10.1 kmh 24.98 in845.9 mb 0.00 in0.0 mm 0.00 in/hr0.0 mm/hr 0.00 in0.0 mm
06:01 AM 48.2°F9.0°C 16.7°F-8.5°C 28% 4.0 mph SE6.4 kmh SE 7.4 mph11.9 kmh 24.98 in845.9 mb 0.00 in0.0 mm 0.00 in/hr0.0 mm/hr 0.00 in0.0 mm
06:06 AM 47.5°F8.6°C 16.0°F-8.9°C 28% 4.0 mph SE6.4 kmh SE 6.9 mph11.1 kmh 24.98 in845.9 mb 0.00 in0.0 mm 0.00 in/hr0.0 mm/hr 0.00 in0.0 mm
06:11 AM 47.5°F8.6°C 16.9°F-8.4°C 29% 4.0 mph ESE6.4 kmh ESE 6.3 mph10.1 kmh 24.98 in845.9 mb 0.00 in0.0 mm 0.00 in/hr0.0 mm/hr 0.00 in0.0 mm
06:16 AM 47.5°F8.6°C 16.9°F-8.4°C 29% 4.0 mph ESE6.4 kmh ESE 6.9 mph11.1 kmh 24.98 in845.9 mb 0.00 in0.0 mm 0.00 in/hr0.0 mm/hr 0.00 in0.0 mm
06:21 AM 47.3°F8.5°C 16.7°F-8.5°C 29% 5.0 mph ESE8.0 kmh ESE 6.3 mph10.1 kmh 24.98 in845.9 mb 0.00 in0.0 mm 0.00 in/hr0.0 mm/hr 0.00 in0.0 mm
06:26 AM 45.5°F7.5°C 15.1°F-9.4°C 29% 5.0 mph SE8.0 kmh SE 6.3 mph10.1 kmh 24.98 in845.9 mb 0.00 in0.0 mm 0.00 in/hr0.0 mm/hr 0.00 in0.0 mm
06:31 AM 44.8°F7.1°C 16.0°F-8.9°C 31% 5.0 mph SE8.0 kmh SE 6.3 mph10.1 kmh 24.98 in845.9 mb 0.00 in0.0 mm 0.00 in/hr0.0 mm/hr 0.00 in0.0 mm
06:36 AM 45.3°F7.4°C 17.2°F-8.2°C 32% 5.0 mph SE8.0 kmh SE 5.8 mph9.3 kmh 24.98 in845.9 mb 0.00 in0.0 mm 0.00 in/hr0.0 mm/hr 0.00 in0.0 mm
06:41 AM 47.3°F8.5°C 18.1°F-7.7°C 31% 4.0 mph ESE6.4 kmh ESE 5.8 mph9.3 kmh 24.98 in845.9 mb 0.00 in0.0 mm 0.00 in/hr0.0 mm/hr 0.00 in0.0 mm
06:46 AM 44.6°F7.0°C 15.8°F-9.0°C 31% 4.0 mph ESE6.4 kmh ESE 5.8 mph9.3 kmh 24.98 in845.9 mb 0.00 in0.0 mm 0.00 in/hr0.0 mm/hr 0.00 in0.0 mm
06:51 AM 45.1°F7.3°C 17.1°F-8.3°C 32% 4.0 mph SE6.4 kmh SE 6.3 mph10.1 kmh 24.98 in845.9 mb 0.00 in0.0 mm 0.00 in/hr0.0 mm/hr 0.00 in0.0 mm
06:56 AM 46.2°F7.9°C 18.0°F-7.8°C 32% 4.0 mph SE6.4 kmh SE 6.3 mph10.1 kmh 24.98 in845.9 mb 0.00 in0.0 mm 0.00 in/hr0.0 mm/hr 0.00 in0.0 mm
07:01 AM 47.5°F8.6°C 18.3°F-7.6°C 31% 5.0 mph ESE8.0 kmh ESE 7.4 mph11.9 kmh 24.98 in845.9 mb 0.00 in0.0 mm 0.00 in/hr0.0 mm/hr 0.00 in0.0 mm
07:06 AM 48.0°F8.9°C 18.1°F-7.7°C 30% 6.0 mph E9.7 kmh E 8.7 mph14.0 kmh 24.98 in845.9 mb 0.00 in0.0 mm 0.00 in/hr0.0 mm/hr 0.00 in0.0 mm
07:11 AM 47.3°F8.5°C 17.4°F-8.1°C 30% 5.0 mph ESE8.0 kmh ESE 6.9 mph11.1 kmh 24.98 in845.9 mb 0.00 in0.0 mm 0.00 in/hr0.0 mm/hr 0.00 in0.0 mm
07:16 AM 47.3°F8.5°C 17.4°F-8.1°C 30% 5.0 mph ESE8.0 kmh ESE 6.9 mph11.1 kmh 24.98 in845.9 mb 0.00 in0.0 mm 0.00 in/hr0.0 mm/hr 0.00 in0.0 mm
07:21 AM 48.0°F8.9°C 18.1°F-7.7°C 30% 5.0 mph ESE8.0 kmh ESE 6.3 mph10.1 kmh 24.98 in845.9 mb 0.00 in0.0 mm 0.00 in/hr0.0 mm/hr 0.00 in0.0 mm
07:26 AM 48.4°F9.1°C 17.6°F-8.0°C 29% 4.0 mph ESE6.4 kmh ESE 6.7 mph10.8 kmh 24.98 in845.9 mb 0.00 in0.0 mm 0.00 in/hr0.0 mm/hr 0.00 in0.0 mm
07:31 AM 47.8°F8.8°C 17.1°F-8.3°C 29% 3.0 mph ESE4.8 kmh ESE 4.9 mph7.9 kmh 24.98 in845.9 mb 0.00 in0.0 mm 0.00 in/hr0.0 mm/hr 0.00 in0.0 mm
07:36 AM 49.1°F9.5°C 18.3°F-7.6°C 29% 4.0 mph ESE6.4 kmh ESE 8.7 mph14.0 kmh 24.98 in845.9 mb 0.00 in0.0 mm 0.00 in/hr0.0 mm/hr 0.00 in0.0 mm
07:41 AM 49.5°F9.7°C 17.8°F-7.9°C 28% 5.0 mph ESE8.0 kmh ESE 8.7 mph14.0 kmh 24.98 in845.9 mb 0.00 in0.0 mm 0.00 in/hr0.0 mm/hr 0.00 in0.0 mm
07:46 AM 50.0°F10.0°C 18.1°F-7.7°C 28% 5.0 mph ESE8.0 kmh ESE 6.7 mph10.8 kmh 24.98 in845.9 mb 0.00 in0.0 mm 0.00 in/hr0.0 mm/hr 0.00 in0.0 mm
07:51 AM 49.8°F9.9°C 17.2°F-8.2°C 27% 5.0 mph ESE8.0 kmh ESE 6.9 mph11.1 kmh 24.98 in845.9 mb 0.00 in0.0 mm 0.00 in/hr0.0 mm/hr 0.00 in0.0 mm
07:56 AM 50.0°F10.0°C 17.4°F-8.1°C 27% 5.0 mph ESE8.0 kmh ESE 6.3 mph10.1 kmh 25.01 in846.9 mb 0.00 in0.0 mm 0.00 in/hr0.0 mm/hr 0.00 in0.0 mm
08:02 AM 50.4°F10.2°C 17.6°F-8.0°C 27% 4.0 mph E6.4 kmh E 7.4 mph11.9 kmh 25.01 in846.9 mb 0.00 in0.0 mm 0.00 in/hr0.0 mm/hr 0.00 in0.0 mm
08:07 AM 50.2°F10.1°C 17.4°F-8.1°C 27% 5.0 mph E8.0 kmh E 8.7 mph14.0 kmh 25.01 in846.9 mb 0.00 in0.0 mm 0.00 in/hr0.0 mm/hr 0.00 in0.0 mm
08:12 AM 50.4°F10.2°C 17.6°F-8.0°C 27% 6.0 mph ESE9.7 kmh ESE 10.1 mph16.3 kmh 25.01 in846.9 mb 0.00 in0.0 mm 0.00 in/hr0.0 mm/hr 0.00 in0.0 mm
08:17 AM 50.4°F10.2°C 17.6°F-8.0°C 27% 6.0 mph E9.7 kmh E 13.0 mph20.9 kmh 25.01 in846.9 mb 0.00 in0.0 mm 0.00 in/hr0.0 mm/hr 0.00 in0.0 mm
08:22 AM 50.7°F10.4°C 18.0°F-7.8°C 27% 7.0 mph E11.3 kmh E 10.5 mph16.9 kmh 25.01 in846.9 mb 0.00 in0.0 mm 0.00 in/hr0.0 mm/hr 0.00 in0.0 mm
08:27 AM 51.4°F10.8°C 18.5°F-7.5°C 27% 7.0 mph ESE11.3 kmh ESE 9.6 mph15.4 kmh 25.01 in846.9 mb 0.00 in0.0 mm 0.00 in/hr0.0 mm/hr 0.00 in0.0 mm
08:32 AM 51.4°F10.8°C 18.5°F-7.5°C 27% 7.0 mph ESE11.3 kmh ESE 10.5 mph16.9 kmh 25.01 in846.9 mb 0.00 in0.0 mm 0.00 in/hr0.0 mm/hr 0.00 in0.0 mm
08:37 AM 52.2°F11.2°C 19.2°F-7.1°C 27% 7.0 mph SE11.3 kmh SE 9.2 mph14.8 kmh 25.01 in846.9 mb 0.00 in0.0 mm 0.00 in/hr0.0 mm/hr 0.00 in0.0 mm
08:42 AM 53.8°F12.1°C 19.8°F-6.8°C 26% 5.0 mph SE8.0 kmh SE 6.7 mph10.8 kmh 25.01 in846.9 mb 0.00 in0.0 mm 0.00 in/hr0.0 mm/hr 0.00 in0.0 mm
08:47 AM 55.2°F12.9°C 19.9°F-6.7°C 25% 3.0 mph SE4.8 kmh SE 6.3 mph10.1 kmh 25.01 in846.9 mb 0.00 in0.0 mm 0.00 in/hr0.0 mm/hr 0.00 in0.0 mm
08:52 AM 55.9°F13.3°C 20.7°F-6.3°C 25% 3.0 mph SSE4.8 kmh SSE 5.8 mph9.3 kmh 25.01 in846.9 mb 0.00 in0.0 mm 0.00 in/hr0.0 mm/hr 0.00 in0.0 mm
08:58 AM 55.9°F13.3°C 17.6°F-8.0°C 22% 4.0 mph SE6.4 kmh SE 6.7 mph10.8 kmh 24.98 in845.9 mb 0.00 in0.0 mm 0.00 in/hr0.0 mm/hr 0.00 in0.0 mm
09:03 AM 56.1°F13.4°C 15.6°F-9.1°C 20% 4.0 mph ESE6.4 kmh ESE 6.9 mph11.1 kmh 24.98 in845.9 mb 0.00 in0.0 mm 0.00 in/hr0.0 mm/hr 0.00 in0.0 mm
09:08 AM 56.5°F13.6°C 14.7°F-9.6°C 19% 5.0 mph E8.0 kmh E 6.9 mph11.1 kmh 24.98 in845.9 mb 0.00 in0.0 mm 0.00 in/hr0.0 mm/hr 0.00 in0.0 mm
09:13 AM 56.8°F13.8°C 15.1°F-9.4°C 19% 5.0 mph E8.0 kmh E 7.8 mph12.6 kmh 24.98 in845.9 mb 0.00 in0.0 mm 0.00 in/hr0.0 mm/hr 0.00 in0.0 mm
09:18 AM 57.2°F14.0°C 15.3°F-9.3°C 19% 5.0 mph E8.0 kmh E 7.8 mph12.6 kmh 24.98 in845.9 mb 0.00 in0.0 mm 0.00 in/hr0.0 mm/hr 0.00 in0.0 mm
09:23 AM 57.0°F13.9°C 12.7°F-10.7°C 17% 5.0 mph ESE8.0 kmh ESE 7.8 mph12.6 kmh 24.98 in845.9 mb 0.00 in0.0 mm 0.00 in/hr0.0 mm/hr 0.00 in0.0 mm
09:28 AM 57.7°F14.3°C 15.8°F-9.0°C 19% 6.0 mph SE9.7 kmh SE 7.8 mph12.6 kmh 24.98 in845.9 mb 0.00 in0.0 mm 0.00 in/hr0.0 mm/hr 0.00 in0.0 mm
09:33 AM 58.8°F14.9°C 14.2°F-9.9°C 17% 4.0 mph SE6.4 kmh SE 7.8 mph12.6 kmh 24.98 in845.9 mb 0.00 in0.0 mm 0.00 in/hr0.0 mm/hr 0.00 in0.0 mm
09:38 AM 59.5°F15.3°C 14.7°F-9.6°C 17% 4.0 mph SE6.4 kmh SE 8.3 mph13.4 kmh 24.98 in845.9 mb 0.00 in0.0 mm 0.00 in/hr0.0 mm/hr 0.00 in0.0 mm
09:43 AM 59.9°F15.5°C 10.6°F-11.9°C 14% 6.0 mph SE9.7 kmh SE 9.2 mph14.8 kmh 24.98 in845.9 mb 0.00 in0.0 mm 0.00 in/hr0.0 mm/hr 0.00 in0.0 mm
09:48 AM 60.6°F15.9°C 11.1°F-11.6°C 14% 5.0 mph SE8.0 kmh SE 8.3 mph13.4 kmh 24.98 in845.9 mb 0.00 in0.0 mm 0.00 in/hr0.0 mm/hr 0.00 in0.0 mm
09:53 AM 60.8°F16.0°C 11.3°F-11.5°C 14% 4.0 mph SE6.4 kmh SE 8.7 mph14.0 kmh 24.98 in845.9 mb 0.00 in0.0 mm 0.00 in/hr0.0 mm/hr 0.00 in0.0 mm
09:58 AM 62.1°F16.7°C 10.6°F-11.9°C 13% 4.0 mph SE6.4 kmh SE 5.8 mph9.3 kmh 24.98 in845.9 mb 0.00 in0.0 mm 0.00 in/hr0.0 mm/hr 0.00 in0.0 mm
10:03 AM 62.6°F17.0°C 11.1°F-11.6°C 13% 3.0 mph SE4.8 kmh SE 6.3 mph10.1 kmh 24.98 in845.9 mb 0.00 in0.0 mm 0.00 in/hr0.0 mm/hr 0.00 in0.0 mm
10:08 AM 63.5°F17.5°C -5537.2°C - 3.0 mph SSE4.8 kmh SSE 5.4 mph8.7 kmh 24.98 in845.9 mb 0.00 in0.0 mm 0.00 in/hr0.0 mm/hr 0.00 in0.0 mm
10:13 AM 64.0°F17.8°C -5537.2°C - 3.0 mph S4.8 kmh S 4.9 mph7.9 kmh 24.98 in845.9 mb 0.00 in0.0 mm 0.00 in/hr0.0 mm/hr 0.00 in0.0 mm
10:18 AM 64.4°F18.0°C -5537.2°C - 2.0 mph SSE3.2 kmh SSE 4.5 mph7.2 kmh 24.98 in845.9 mb 0.00 in0.0 mm 0.00 in/hr0.0 mm/hr 0.00 in0.0 mm
10:23 AM 64.4°F18.0°C -5537.2°C - 2.0 mph ESE3.2 kmh ESE 7.8 mph12.6 kmh 24.98 in845.9 mb 0.00 in0.0 mm 0.00 in/hr0.0 mm/hr 0.00 in0.0 mm
10:28 AM 64.8°F18.2°C -5537.2°C - 4.0 mph WSW6.4 kmh WSW 7.4 mph11.9 kmh 24.98 in845.9 mb 0.00 in0.0 mm 0.00 in/hr0.0 mm/hr 0.00 in0.0 mm
10:33 AM 65.3°F18.5°C -5537.2°C - 5.0 mph WSW8.0 kmh WSW 9.6 mph15.4 kmh 24.98 in845.9 mb 0.00 in0.0 mm 0.00 in/hr0.0 mm/hr 0.00 in0.0 mm
10:38 AM 66.2°F19.0°C -5537.2°C - 4.0 mph WSW6.4 kmh WSW 5.8 mph9.3 kmh 24.98 in845.9 mb 0.00 in0.0 mm 0.00 in/hr0.0 mm/hr 0.00 in0.0 mm
10:43 AM 66.4°F19.1°C -5537.2°C - 4.0 mph NW6.4 kmh NW 8.7 mph14.0 kmh 24.95 in844.9 mb 0.00 in0.0 mm 0.00 in/hr0.0 mm/hr 0.00 in0.0 mm
10:48 AM 67.3°F19.6°C -5537.2°C - 5.0 mph NW8.0 kmh NW 6.9 mph11.1 kmh 24.95 in844.9 mb 0.00 in0.0 mm 0.00 in/hr0.0 mm/hr 0.00 in0.0 mm
10:53 AM 68.2°F20.1°C -5537.2°C - 4.0 mph WNW6.4 kmh WNW 5.4 mph8.7 kmh 24.95 in844.9 mb 0.00 in0.0 mm 0.00 in/hr0.0 mm/hr 0.00 in0.0 mm
10:58 AM 68.7°F20.4°C -5537.2°C - 3.0 mph WNW4.8 kmh WNW 6.7 mph10.8 kmh 24.95 in844.9 mb 0.00 in0.0 mm 0.00 in/hr0.0 mm/hr 0.00 in0.0 mm
11:03 AM 69.3°F20.7°C -5537.2°C - 4.0 mph E6.4 kmh E 6.9 mph11.1 kmh 24.95 in844.9 mb 0.00 in0.0 mm 0.00 in/hr0.0 mm/hr 0.00 in0.0 mm
11:08 AM 69.8°F21.0°C -5537.2°C - 4.0 mph ENE6.4 kmh ENE 9.2 mph14.8 kmh 24.95 in844.9 mb 0.00 in0.0 mm 0.00 in/hr0.0 mm/hr 0.00 in0.0 mm
11:13 AM 70.7°F21.5°C -5537.2°C - 6.0 mph E9.7 kmh E 13.9 mph22.4 kmh 24.95 in844.9 mb 0.00 in0.0 mm 0.00 in/hr0.0 mm/hr 0.00 in0.0 mm
11:18 AM 70.9°F21.6°C -5537.2°C - 9.0 mph E14.5 kmh E 14.3 mph23.0 kmh 24.95 in844.9 mb 0.00 in0.0 mm 0.00 in/hr0.0 mm/hr 0.00 in0.0 mm
11:24 AM 72.1°F22.3°C -5537.2°C - 8.0 mph E12.9 kmh E 13.9 mph22.4 kmh 24.95 in844.9 mb 0.00 in0.0 mm 0.00 in/hr0.0 mm/hr 0.00 in0.0 mm
11:29 AM 71.4°F21.9°C -5537.2°C - 8.0 mph E12.9 kmh E 13.4 mph21.6 kmh 24.95 in844.9 mb 0.00 in0.0 mm 0.00 in/hr0.0 mm/hr 0.00 in0.0 mm
11:34 AM 71.8°F22.1°C -5537.2°C - 8.0 mph E12.9 kmh E 10.1 mph16.3 kmh 24.95 in844.9 mb 0.00 in0.0 mm 0.00 in/hr0.0 mm/hr 0.00 in0.0 mm
11:39 AM 72.3°F22.4°C -5537.2°C - 6.0 mph E9.7 kmh E 10.1 mph16.3 kmh 24.92 in843.9 mb 0.00 in0.0 mm 0.00 in/hr0.0 mm/hr 0.00 in0.0 mm
11:44 AM 72.1°F22.3°C -5537.2°C - 6.0 mph E9.7 kmh E 13.0 mph20.9 kmh 24.92 in843.9 mb 0.00 in0.0 mm 0.00 in/hr0.0 mm/hr 0.00 in0.0 mm
11:49 AM 73.9°F23.3°C -5537.2°C - 6.0 mph E9.7 kmh E 11.6 mph18.7 kmh 24.92 in843.9 mb 0.00 in0.0 mm 0.00 in/hr0.0 mm/hr 0.00 in0.0 mm
11:54 AM 73.8°F23.2°C -5537.2°C - 7.0 mph E11.3 kmh E 12.1 mph19.5 kmh 24.92 in843.9 mb 0.00 in0.0 mm 0.00 in/hr0.0 mm/hr 0.00 in0.0 mm
11:59 AM 73.0°F22.8°C -5537.2°C - 8.0 mph E12.9 kmh E 14.3 mph23.0 kmh 24.92 in843.9 mb 0.00 in0.0 mm 0.00 in/hr0.0 mm/hr 0.00 in0.0 mm
12:04 PM 73.6°F23.1°C -5537.2°C - 8.0 mph E12.9 kmh E 13.4 mph21.6 kmh 24.92 in843.9 mb 0.00 in0.0 mm 0.00 in/hr0.0 mm/hr 0.00 in0.0 mm
12:09 PM 73.6°F23.1°C -5537.2°C - 8.0 mph NNE12.9 kmh NNE 13.4 mph21.6 kmh 24.92 in843.9 mb 0.00 in0.0 mm 0.00 in/hr0.0 mm/hr 0.00 in0.0 mm
12:14 PM 72.7°F22.6°C -5537.2°C - 9.0 mph N14.5 kmh N 16.3 mph26.2 kmh 24.92 in843.9 mb 0.00 in0.0 mm 0.00 in/hr0.0 mm/hr 0.00 in0.0 mm
12:19 PM 73.2°F22.9°C -5537.2°C - 10.0 mph NW16.1 kmh NW 14.8 mph23.8 kmh 24.92 in843.9 mb 0.00 in0.0 mm 0.00 in/hr0.0 mm/hr 0.00 in0.0 mm
12:24 PM 73.2°F22.9°C -5537.2°C - 11.0 mph NW17.7 kmh NW 16.8 mph27.0 kmh 24.92 in843.9 mb 0.00 in0.0 mm 0.00 in/hr0.0 mm/hr 0.00 in0.0 mm
12:29 PM 71.8°F22.1°C -5537.2°C - 12.0 mph NW19.3 kmh NW 19.0 mph30.6 kmh 24.92 in843.9 mb 0.00 in0.0 mm 0.00 in/hr0.0 mm/hr 0.00 in0.0 mm
12:34 PM 72.9°F22.7°C -5537.2°C - 12.0 mph NW19.3 kmh NW 15.4 mph24.8 kmh 24.92 in843.9 mb 0.00 in0.0 mm 0.00 in/hr0.0 mm/hr 0.00 in0.0 mm
12:39 PM 72.9°F22.7°C -5537.2°C - 12.0 mph NW19.3 kmh NW 15.9 mph25.6 kmh 24.92 in843.9 mb 0.00 in0.0 mm 0.00 in/hr0.0 mm/hr 0.00 in0.0 mm
12:44 PM 73.2°F22.9°C -5537.2°C - 12.0 mph NW19.3 kmh NW 15.9 mph25.6 kmh 24.92 in843.9 mb 0.00 in0.0 mm 0.00 in/hr0.0 mm/hr 0.00 in0.0 mm
12:49 PM 73.8°F23.2°C -5537.2°C - 11.0 mph NW17.7 kmh NW 16.3 mph26.2 kmh 24.92 in843.9 mb 0.00 in0.0 mm 0.00 in/hr0.0 mm/hr 0.00 in0.0 mm
12:55 PM 73.6°F23.1°C -5537.2°C - 11.0 mph NW17.7 kmh NW 15.4 mph24.8 kmh 24.89 in842.9 mb 0.00 in0.0 mm 0.00 in/hr0.0 mm/hr 0.00 in0.0 mm
01:00 PM 73.6°F23.1°C -5537.2°C - 10.0 mph NW16.1 kmh NW 14.8 mph23.8 kmh 24.89 in842.9 mb 0.00 in0.0 mm 0.00 in/hr0.0 mm/hr 0.00 in0.0 mm
01:05 PM 73.9°F23.3°C -5537.2°C - 10.0 mph NW16.1 kmh NW 14.8 mph23.8 kmh 24.89 in842.9 mb 0.00 in0.0 mm 0.00 in/hr0.0 mm/hr 0.00 in0.0 mm
01:10 PM 73.9°F23.3°C -5537.2°C - 11.0 mph NW17.7 kmh NW 16.3 mph26.2 kmh 24.89 in842.9 mb 0.00 in0.0 mm 0.00 in/hr0.0 mm/hr 0.00 in0.0 mm
01:15 PM 74.7°F23.7°C -5537.2°C - 10.0 mph NNW16.1 kmh NNW 15.2 mph24.5 kmh 24.89 in842.9 mb 0.00 in0.0 mm 0.00 in/hr0.0 mm/hr 0.00 in0.0 mm
01:20 PM 74.5°F23.6°C -5537.2°C - 9.0 mph NNW14.5 kmh NNW 17.2 mph27.7 kmh 24.89 in842.9 mb 0.00 in0.0 mm 0.00 in/hr0.0 mm/hr 0.00 in0.0 mm
01:25 PM 74.8°F23.8°C -5537.2°C - 8.0 mph NW12.9 kmh NW 13.9 mph22.4 kmh 24.89 in842.9 mb 0.00 in0.0 mm 0.00 in/hr0.0 mm/hr 0.00 in0.0 mm
01:30 PM 73.9°F23.3°C -5537.2°C - 8.0 mph NW12.9 kmh NW 12.5 mph20.1 kmh 24.89 in842.9 mb 0.00 in0.0 mm 0.00 in/hr0.0 mm/hr 0.00 in0.0 mm
01:35 PM 73.8°F23.2°C -5537.2°C - 8.0 mph NW12.9 kmh NW 14.3 mph23.0 kmh 24.89 in842.9 mb 0.00 in0.0 mm 0.00 in/hr0.0 mm/hr 0.00 in0.0 mm
01:41 PM 74.7°F23.7°C -5537.2°C - 10.0 mph NNW16.1 kmh NNW 14.3 mph23.0 kmh 24.89 in842.9 mb 0.00 in0.0 mm 0.00 in/hr0.0 mm/hr 0.00 in0.0 mm
01:46 PM 74.8°F23.8°C -5537.2°C - 10.0 mph N16.1 kmh N 13.9 mph22.4 kmh 24.89 in842.9 mb 0.00 in0.0 mm 0.00 in/hr0.0 mm/hr 0.00 in0.0 mm
01:51 PM 75.9°F24.4°C -5537.2°C - 10.0 mph N16.1 kmh N 16.3 mph26.2 kmh 24.89 in842.9 mb 0.00 in0.0 mm 0.00 in/hr0.0 mm/hr 0.00 in0.0 mm
01:56 PM 76.3°F24.6°C -5537.2°C - 11.0 mph NNW17.7 kmh NNW 16.8 mph27.0 kmh 24.86 in841.9 mb 0.00 in0.0 mm 0.00 in/hr0.0 mm/hr 0.00 in0.0 mm
02:01 PM 75.0°F23.9°C -5537.2°C - 12.0 mph N19.3 kmh N 17.7 mph28.5 kmh 24.86 in841.9 mb 0.00 in0.0 mm 0.00 in/hr0.0 mm/hr 0.00 in0.0 mm
02:06 PM 76.5°F24.7°C -5537.2°C - 11.0 mph NNW17.7 kmh NNW 14.3 mph23.0 kmh 24.86 in841.9 mb 0.00 in0.0 mm 0.00 in/hr0.0 mm/hr 0.00 in0.0 mm
02:11 PM 75.0°F23.9°C -5537.2°C - 10.0 mph N16.1 kmh N 16.8 mph27.0 kmh 24.86 in841.9 mb 0.00 in0.0 mm 0.00 in/hr0.0 mm/hr 0.00 in0.0 mm
02:16 PM 75.7°F24.3°C -5537.2°C - 10.0 mph N16.1 kmh N 13.0 mph20.9 kmh 24.86 in841.9 mb 0.00 in0.0 mm 0.00 in/hr0.0 mm/hr 0.00 in0.0 mm
02:21 PM 74.8°F23.8°C -5537.2°C - 11.0 mph N17.7 kmh N 17.7 mph28.5 kmh 24.86 in841.9 mb 0.00 in0.0 mm 0.00 in/hr0.0 mm/hr 0.00 in0.0 mm
02:26 PM 75.0°F23.9°C -5537.2°C - 11.0 mph NNE17.7 kmh NNE 13.9 mph22.4 kmh 24.86 in841.9 mb 0.00 in0.0 mm 0.00 in/hr0.0 mm/hr 0.00 in0.0 mm
02:31 PM 75.0°F23.9°C -5537.2°C - 8.0 mph N12.9 kmh N 14.3 mph23.0 kmh 24.86 in841.9 mb 0.00 in0.0 mm 0.00 in/hr0.0 mm/hr 0.00 in0.0 mm
02:36 PM 75.7°F24.3°C -5537.2°C - 7.0 mph NNW11.3 kmh NNW 13.4 mph21.6 kmh 24.86 in841.9 mb 0.00 in0.0 mm 0.00 in/hr0.0 mm/hr 0.00 in0.0 mm
02:41 PM 75.6°F24.2°C -5537.2°C - 8.0 mph NW12.9 kmh NW 13.0 mph20.9 kmh 24.86 in841.9 mb 0.00 in0.0 mm 0.00 in/hr0.0 mm/hr 0.00 in0.0 mm
02:46 PM 75.6°F24.2°C -5537.2°C - 7.0 mph NNW11.3 kmh NNW 13.0 mph20.9 kmh 24.86 in841.9 mb 0.00 in0.0 mm 0.00 in/hr0.0 mm/hr 0.00 in0.0 mm
02:51 PM 75.9°F24.4°C -5537.2°C - 7.0 mph 11.3 kmh 14.3 mph23.0 kmh 24.86 in841.9 mb 0.00 in0.0 mm 0.00 in/hr0.0 mm/hr 0.00 in0.0 mm
02:57 PM 75.7°F24.3°C -5537.2°C - 7.0 mph N11.3 kmh N 10.1 mph16.3 kmh 24.86 in841.9 mb 0.00 in0.0 mm 0.00 in/hr0.0 mm/hr 0.00 in0.0 mm
03:02 PM 76.5°F24.7°C -5537.2°C - 8.0 mph NNW12.9 kmh NNW 13.0 mph20.9 kmh 24.86 in841.9 mb 0.00 in0.0 mm 0.00 in/hr0.0 mm/hr 0.00 in0.0 mm
03:07 PM 76.6°F24.8°C -5537.2°C - 6.0 mph W9.7 kmh W 7.4 mph11.9 kmh 24.86 in841.9 mb 0.00 in0.0 mm 0.00 in/hr0.0 mm/hr 0.00 in0.0 mm
03:12 PM 77.2°F25.1°C -5537.2°C - 4.0 mph NW6.4 kmh NW 9.2 mph14.8 kmh 24.83 in840.8 mb 0.00 in0.0 mm 0.00 in/hr0.0 mm/hr 0.00 in0.0 mm
03:17 PM 78.1°F25.6°C -5537.2°C - 4.0 mph N6.4 kmh N 7.8 mph12.6 kmh 24.83 in840.8 mb 0.00 in0.0 mm 0.00 in/hr0.0 mm/hr 0.00 in0.0 mm
03:22 PM 77.7°F25.4°C -5537.2°C - 3.0 mph NNW4.8 kmh NNW 5.8 mph9.3 kmh 24.83 in840.8 mb 0.00 in0.0 mm 0.00 in/hr0.0 mm/hr 0.00 in0.0 mm
03:27 PM 78.4°F25.8°C -5537.2°C - 3.0 mph W4.8 kmh W 7.4 mph11.9 kmh 24.83 in840.8 mb 0.00 in0.0 mm 0.00 in/hr0.0 mm/hr 0.00 in0.0 mm
03:32 PM 78.3°F25.7°C -5537.2°C - 4.0 mph WSW6.4 kmh WSW 7.4 mph11.9 kmh 24.83 in840.8 mb 0.00 in0.0 mm 0.00 in/hr0.0 mm/hr 0.00 in0.0 mm
03:37 PM 77.5°F25.3°C -5537.2°C - 5.0 mph NW8.0 kmh NW 8.7 mph14.0 kmh 24.83 in840.8 mb 0.00 in0.0 mm 0.00 in/hr0.0 mm/hr 0.00 in0.0 mm
03:42 PM 77.2°F25.1°C -5537.2°C - 6.0 mph NW9.7 kmh NW 11.2 mph18.0 kmh 24.83 in840.8 mb 0.00 in0.0 mm 0.00 in/hr0.0 mm/hr 0.00 in0.0 mm
03:47 PM 77.9°F25.5°C -5537.2°C - 8.0 mph WNW12.9 kmh WNW 13.9 mph22.4 kmh 24.83 in840.8 mb 0.00 in0.0 mm 0.00 in/hr0.0 mm/hr 0.00 in0.0 mm
03:57 PM 77.7°F25.4°C -5537.2°C - 5.0 mph S8.0 kmh S 7.8 mph12.6 kmh 24.80 in839.8 mb 0.00 in0.0 mm 0.00 in/hr0.0 mm/hr 0.00 in0.0 mm
04:02 PM 78.1°F25.6°C -5537.2°C - 5.0 mph S8.0 kmh S 11.6 mph18.7 kmh 24.80 in839.8 mb 0.00 in0.0 mm 0.00 in/hr0.0 mm/hr 0.00 in0.0 mm
04:07 PM 77.5°F25.3°C -5537.2°C - 6.0 mph S9.7 kmh S 11.0 mph17.7 kmh 24.80 in839.8 mb 0.00 in0.0 mm 0.00 in/hr0.0 mm/hr 0.00 in0.0 mm
04:12 PM 77.7°F25.4°C -5537.2°C - 7.0 mph S11.3 kmh S 15.9 mph25.6 kmh 24.80 in839.8 mb 0.00 in0.0 mm 0.00 in/hr0.0 mm/hr 0.00 in0.0 mm
04:17 PM 77.9°F25.5°C -5537.2°C - 8.0 mph S12.9 kmh S 15.4 mph24.8 kmh 24.80 in839.8 mb 0.00 in0.0 mm 0.00 in/hr0.0 mm/hr 0.00 in0.0 mm
04:22 PM 77.7°F25.4°C -5537.2°C - 9.0 mph S14.5 kmh S 15.4 mph24.8 kmh 24.80 in839.8 mb 0.00 in0.0 mm 0.00 in/hr0.0 mm/hr 0.00 in0.0 mm
04:27 PM 78.3°F25.7°C -5537.2°C - 8.0 mph S12.9 kmh S 13.0 mph20.9 kmh 24.80 in839.8 mb 0.00 in0.0 mm 0.00 in/hr0.0 mm/hr 0.00 in0.0 mm
04:32 PM 78.8°F26.0°C -5537.2°C - 8.0 mph S12.9 kmh S 14.3 mph23.0 kmh 24.80 in839.8 mb 0.00 in0.0 mm 0.00 in/hr0.0 mm/hr 0.00 in0.0 mm
04:38 PM 79.0°F26.1°C -5537.2°C - 9.0 mph SSE14.5 kmh SSE 17.7 mph28.5 kmh 24.80 in839.8 mb 0.00 in0.0 mm 0.00 in/hr0.0 mm/hr 0.00 in0.0 mm
04:43 PM 80.1°F26.7°C -5537.2°C - 10.0 mph SSE16.1 kmh SSE 19.0 mph30.6 kmh 24.80 in839.8 mb 0.00 in0.0 mm 0.00 in/hr0.0 mm/hr 0.00 in0.0 mm
04:48 PM 80.1°F26.7°C -5537.2°C - 10.0 mph SSE16.1 kmh SSE 18.6 mph29.9 kmh 24.80 in839.8 mb 0.00 in0.0 mm 0.00 in/hr0.0 mm/hr 0.00 in0.0 mm
04:53 PM 79.3°F26.3°C -5537.2°C - 10.0 mph S16.1 kmh S 18.6 mph29.9 kmh 24.80 in839.8 mb 0.00 in0.0 mm 0.00 in/hr0.0 mm/hr 0.00 in0.0 mm
04:58 PM 78.4°F25.8°C -5537.2°C - 11.0 mph S17.7 kmh S 20.1 mph32.3 kmh 24.80 in839.8 mb 0.00 in0.0 mm 0.00 in/hr0.0 mm/hr 0.00 in0.0 mm
05:03 PM 79.0°F26.1°C -5537.2°C - 11.0 mph SSW17.7 kmh SSW 19.5 mph31.4 kmh 24.80 in839.8 mb 0.00 in0.0 mm 0.00 in/hr0.0 mm/hr 0.00 in0.0 mm
05:08 PM 79.0°F26.1°C -5537.2°C - 10.0 mph S16.1 kmh S 15.9 mph25.6 kmh 24.80 in839.8 mb 0.00 in0.0 mm 0.00 in/hr0.0 mm/hr 0.00 in0.0 mm
05:13 PM 79.2°F26.2°C -5537.2°C - 10.0 mph S16.1 kmh S 14.8 mph23.8 kmh 24.77 in838.8 mb 0.00 in0.0 mm 0.00 in/hr0.0 mm/hr 0.00 in0.0 mm
05:18 PM 79.5°F26.4°C -5537.2°C - 9.0 mph S14.5 kmh S 15.9 mph25.6 kmh 24.77 in838.8 mb 0.00 in0.0 mm 0.00 in/hr0.0 mm/hr 0.00 in0.0 mm
05:23 PM 79.3°F26.3°C -5537.2°C - 8.0 mph S12.9 kmh S 15.2 mph24.5 kmh 24.77 in838.8 mb 0.00 in0.0 mm 0.00 in/hr0.0 mm/hr 0.00 in0.0 mm
05:28 PM 79.0°F26.1°C -5537.2°C - 8.0 mph S12.9 kmh S 14.8 mph23.8 kmh 24.77 in838.8 mb 0.00 in0.0 mm 0.00 in/hr0.0 mm/hr 0.00 in0.0 mm
05:33 PM 78.6°F25.9°C -5537.2°C - 9.0 mph S14.5 kmh S 20.6 mph33.2 kmh 24.77 in838.8 mb 0.00 in0.0 mm 0.00 in/hr0.0 mm/hr 0.00 in0.0 mm
05:38 PM 78.4°F25.8°C -5537.2°C - 11.0 mph S17.7 kmh S 16.8 mph27.0 kmh 24.77 in838.8 mb 0.00 in0.0 mm 0.00 in/hr0.0 mm/hr 0.00 in0.0 mm
05:43 PM 78.6°F25.9°C -5537.2°C - 10.0 mph S16.1 kmh S 14.3 mph23.0 kmh 24.77 in838.8 mb 0.00 in0.0 mm 0.00 in/hr0.0 mm/hr 0.00 in0.0 mm
05:48 PM 78.6°F25.9°C -5537.2°C - 9.0 mph S14.5 kmh S 14.8 mph23.8 kmh 24.77 in838.8 mb 0.00 in0.0 mm 0.00 in/hr0.0 mm/hr 0.00 in0.0 mm
05:53 PM 78.6°F25.9°C -5537.2°C - 9.0 mph S14.5 kmh S 16.8 mph27.0 kmh 24.77 in838.8 mb 0.00 in0.0 mm 0.00 in/hr0.0 mm/hr 0.00 in0.0 mm
05:58 PM 77.9°F25.5°C -5537.2°C - 10.0 mph S16.1 kmh S 19.0 mph30.6 kmh 24.77 in838.8 mb 0.00 in0.0 mm 0.00 in/hr0.0 mm/hr 0.00 in0.0 mm